Aviation Digital Data Service (ADDS)

Output produced by METARs form (1622 UTC 18 February 2019)
found at http://www.aviationweather.gov/metar/data/
 
METAR text: RJFS 181600Z 04001KT 8000 -RA NSC 08/06 Q1022
Conditions at: RJFS (SAGA AIRPORT , JP) observed 1600 UTC 18 February 2019
Temperature: 8.0°C (46°F)
Dewpoint: 6.0°C (43°F) [RH = 87%]
Pressure (altimeter): 30.18 inches Hg (1022.0 mb)
Winds: from the NE (40 degrees) at 1 MPH (1 knots; 0.5 m/s)
Visibility: 5 miles ( 8 km)
Ceiling: at least 12,000 feet AGL
Clouds: sky clear below 12,000 feet AGL
Weather: -RA  (light rain)

METAR text: RJFS 181200Z 29004KT 9999 FEW050 BKN060 09/05 Q1024
Conditions at: RJFS (SAGA AIRPORT , JP) observed 1200 UTC 18 February 2019
Temperature: 9.0°C (48°F)
Dewpoint: 5.0°C (41°F) [RH = 76%]
Pressure (altimeter): 30.24 inches Hg (1024.0 mb)
Winds: from the WNW (290 degrees) at 5 MPH (4 knots; 2.1 m/s)
Visibility: 6 or more miles (10+ km)
Ceiling: 6000 feet AGL
Clouds: few clouds at 5000 feet AGL
broken clouds at 6000 feet AGL
Weather: no significant weather observed at this time

METAR text: RJFS 181100Z 28003KT 9999 FEW050 BKN060 10/03 Q1023
Conditions at: RJFS (SAGA AIRPORT , JP) observed 1100 UTC 18 February 2019
Temperature: 10.0°C (50°F)
Dewpoint: 3.0°C (37°F) [RH = 62%]
Pressure (altimeter): 30.21 inches Hg (1023.0 mb)
Winds: from the W (280 degrees) at 3 MPH (3 knots; 1.5 m/s)
Visibility: 6 or more miles (10+ km)
Ceiling: 6000 feet AGL
Clouds: few clouds at 5000 feet AGL
broken clouds at 6000 feet AGL
Weather: no significant weather observed at this time

METAR text: RJFS 181000Z 28003KT 9999 -RA FEW050 BKN070 09/03 Q1024
Conditions at: RJFS (SAGA AIRPORT , JP) observed 1000 UTC 18 February 2019
Temperature: 9.0°C (48°F)
Dewpoint: 3.0°C (37°F) [RH = 66%]
Pressure (altimeter): 30.24 inches Hg (1024.0 mb)
Winds: from the W (280 degrees) at 3 MPH (3 knots; 1.5 m/s)
Visibility: 6 or more miles (10+ km)
Ceiling: 7000 feet AGL
Clouds: few clouds at 5000 feet AGL
broken clouds at 7000 feet AGL
Weather: -RA  (light rain)

METAR text: RJFS 180900Z VRB02KT 9999 -RA NSC 10/03 Q1023
Conditions at: RJFS (SAGA AIRPORT , JP) observed 0900 UTC 18 February 2019
Temperature: 10.0°C (50°F)
Dewpoint: 3.0°C (37°F) [RH = 62%]
Pressure (altimeter): 30.21 inches Hg (1023.0 mb)
Winds: variable direction winds at 2 MPH (2 knots; 1.0 m/s)
Visibility: 6 or more miles (10+ km)
Ceiling: at least 12,000 feet AGL
Clouds: sky clear below 12,000 feet AGL
Weather: -RA  (light rain)

METAR text: RJFS 180800Z VRB01KT 9999 -RA NSC 10/03 Q1022
Conditions at: RJFS (SAGA AIRPORT , JP) observed 0800 UTC 18 February 2019
Temperature: 10.0°C (50°F)
Dewpoint: 3.0°C (37°F) [RH = 62%]
Pressure (altimeter): 30.18 inches Hg (1022.0 mb)
Winds: variable direction winds at 1 MPH (1 knots; 0.5 m/s)
Visibility: 6 or more miles (10+ km)
Ceiling: at least 12,000 feet AGL
Clouds: sky clear below 12,000 feet AGL
Weather: -RA  (light rain)

METAR text: RJFS 180700Z 24003KT 190V280 CAVOK 10/03 Q1022
Conditions at: RJFS (SAGA AIRPORT , JP) observed 0700 UTC 18 February 2019
Temperature: 10.0°C (50°F)
Dewpoint: 3.0°C (37°F) [RH = 62%]
Pressure (altimeter): 30.18 inches Hg (1022.0 mb)
Winds: from the WSW (240 degrees) at 3 MPH (3 knots; 1.5 m/s)
Visibility: 6 or more miles (10+ km)
Ceiling: ceiling and visibility are OK
Clouds: unknown
Weather: no significant weather observed at this time

METAR text: RJFS 180600Z VRB01KT CAVOK 09/02 Q1022
Conditions at: RJFS (SAGA AIRPORT , JP) observed 0600 UTC 18 February 2019
Temperature: 9.0°C (48°F)
Dewpoint: 2.0°C (36°F) [RH = 61%]
Pressure (altimeter): 30.18 inches Hg (1022.0 mb)
Winds: variable direction winds at 1 MPH (1 knots; 0.5 m/s)
Visibility: 6 or more miles (10+ km)
Ceiling: ceiling and visibility are OK
Clouds: unknown
Weather: no significant weather observed at this time

METAR text: RJFS 180500Z VRB02KT CAVOK 09/02 Q1023
Conditions at: RJFS (SAGA AIRPORT , JP) observed 0500 UTC 18 February 2019
Temperature: 9.0°C (48°F)
Dewpoint: 2.0°C (36°F) [RH = 61%]
Pressure (altimeter): 30.21 inches Hg (1023.0 mb)
Winds: variable direction winds at 2 MPH (2 knots; 1.0 m/s)
Visibility: 6 or more miles (10+ km)
Ceiling: ceiling and visibility are OK
Clouds: unknown
Weather: no significant weather observed at this time

METAR text: RJFS 180400Z 22003KT CAVOK 09/01 Q1024
Conditions at: RJFS (SAGA AIRPORT , JP) observed 0400 UTC 18 February 2019
Temperature: 9.0°C (48°F)
Dewpoint: 1.0°C (34°F) [RH = 57%]
Pressure (altimeter): 30.24 inches Hg (1024.0 mb)
Winds: from the SW (220 degrees) at 3 MPH (3 knots; 1.5 m/s)
Visibility: 6 or more miles (10+ km)
Ceiling: ceiling and visibility are OK
Clouds: unknown
Weather: no significant weather observed at this time

METAR text: RJFS 180300Z VRB02KT CAVOK 10/00 Q1025
Conditions at: RJFS (SAGA AIRPORT , JP) observed 0300 UTC 18 February 2019
Temperature: 10.0°C (50°F)
Dewpoint: 0.0°C (32°F) [RH = 50%]
Pressure (altimeter): 30.27 inches Hg (1025.0 mb)
Winds: variable direction winds at 2 MPH (2 knots; 1.0 m/s)
Visibility: 6 or more miles (10+ km)
Ceiling: ceiling and visibility are OK
Clouds: unknown
Weather: no significant weather observed at this time

METAR text: RJFS 180200Z 04004KT 360V080 9999 FEW040 BKN/// 08/00 Q1025
Conditions at: RJFS (SAGA AIRPORT , JP) observed 0200 UTC 18 February 2019
Temperature: 8.0°C (46°F)
Dewpoint: 0.0°C (32°F) [RH = 57%]
Pressure (altimeter): 30.27 inches Hg (1025.0 mb)
Winds: from the NE (40 degrees) at 5 MPH (4 knots; 2.1 m/s)
Visibility: 6 or more miles (10+ km)
Ceiling: at least 12,000 feet AGL
Clouds: few clouds at 4000 feet AGL
Weather: no significant weather observed at this time

METAR text: RJFS 180100Z 04004KT 340V080 9999 FEW050 BKN/// 05/01 Q1026
Conditions at: RJFS (SAGA AIRPORT , JP) observed 0100 UTC 18 February 2019
Temperature: 5.0°C (41°F)
Dewpoint: 1.0°C (34°F) [RH = 75%]
Pressure (altimeter): 30.30 inches Hg (1026.0 mb)
Winds: from the NE (40 degrees) at 5 MPH (4 knots; 2.1 m/s)
Visibility: 6 or more miles (10+ km)
Ceiling: at least 12,000 feet AGL
Clouds: few clouds at 5000 feet AGL
Weather: no significant weather observed at this time

METAR text: RJFS 180000Z 35005KT 9999 FEW045 BKN/// 03/00 Q1026
Conditions at: RJFS (SAGA AIRPORT , JP) observed 0000 UTC 18 February 2019
Temperature: 3.0°C (37°F)
Dewpoint: 0.0°C (32°F) [RH = 81%]
Pressure (altimeter): 30.30 inches Hg (1026.0 mb)
Winds: from the N (350 degrees) at 6 MPH (5 knots; 2.6 m/s)
Visibility: 6 or more miles (10+ km)
Ceiling: at least 12,000 feet AGL
Clouds: few clouds at 4500 feet AGL
Weather: no significant weather observed at this time

METAR text: RJFS 172300Z 33003KT 9999 FEW045 BKN/// 01/M01 Q1025
Conditions at: RJFS (SAGA AIRPORT , JP) observed 2300 UTC 17 February 2019
Temperature: 1.0°C (34°F)
Dewpoint: -1.0°C (30°F) [RH = 86%]
Pressure (altimeter): 30.27 inches Hg (1025.0 mb)
Winds: from the NNW (330 degrees) at 3 MPH (3 knots; 1.5 m/s)
Visibility: 6 or more miles (10+ km)
Ceiling: at least 12,000 feet AGL
Clouds: few clouds at 4500 feet AGL
Weather: no significant weather observed at this time

METAR text: RJFS 172200Z 03004KT 9999 FEW040 BKN/// 01/M01 Q1025
Conditions at: RJFS (SAGA AIRPORT , JP) observed 2200 UTC 17 February 2019
Temperature: 1.0°C (34°F)
Dewpoint: -1.0°C (30°F) [RH = 86%]
Pressure (altimeter): 30.27 inches Hg (1025.0 mb)
Winds: from the NNE (30 degrees) at 5 MPH (4 knots; 2.1 m/s)
Visibility: 6 or more miles (10+ km)
Ceiling: at least 12,000 feet AGL
Clouds: few clouds at 4000 feet AGL
Weather: no significant weather observed at this time

METAR text: RJFS 172100Z 04004KT CAVOK 01/M01 Q1024
Conditions at: RJFS (SAGA AIRPORT , JP) observed 2100 UTC 17 February 2019
Temperature: 1.0°C (34°F)
Dewpoint: -1.0°C (30°F) [RH = 86%]
Pressure (altimeter): 30.24 inches Hg (1024.0 mb)
Winds: from the NE (40 degrees) at 5 MPH (4 knots; 2.1 m/s)
Visibility: 6 or more miles (10+ km)
Ceiling: ceiling and visibility are OK
Clouds: unknown
Weather: no significant weather observed at this time

METAR text: RJFS 171900Z 34005KT CAVOK M00/M02 Q1024
Conditions at: RJFS (SAGA AIRPORT , JP) observed 1900 UTC 17 February 2019
Temperature: 0.0°C (32°F)
Dewpoint: -2.0°C (28°F) [RH = 86%]
Pressure (altimeter): 30.24 inches Hg (1024.0 mb)
Winds: from the NNW (340 degrees) at 6 MPH (5 knots; 2.6 m/s)
Visibility: 6 or more miles (10+ km)
Ceiling: ceiling and visibility are OK
Clouds: unknown
Weather: no significant weather observed at this time

METAR text: RJFS 171800Z 04003KT CAVOK 02/M01 Q1024
Conditions at: RJFS (SAGA AIRPORT , JP) observed 1800 UTC 17 February 2019
Temperature: 2.0°C (36°F)
Dewpoint: -1.0°C (30°F) [RH = 80%]
Pressure (altimeter): 30.24 inches Hg (1024.0 mb)
Winds: from the NE (40 degrees) at 3 MPH (3 knots; 1.5 m/s)
Visibility: 6 or more miles (10+ km)
Ceiling: ceiling and visibility are OK
Clouds: unknown
Weather: no significant weather observed at this time

METAR text: RJFS 171700Z 08002KT CAVOK 01/M01 Q1024
Conditions at: RJFS (SAGA AIRPORT , JP) observed 1700 UTC 17 February 2019
Temperature: 1.0°C (34°F)
Dewpoint: -1.0°C (30°F) [RH = 86%]
Pressure (altimeter): 30.24 inches Hg (1024.0 mb)
Winds: from the E (80 degrees) at 2 MPH (2 knots; 1.0 m/s)
Visibility: 6 or more miles (10+ km)
Ceiling: ceiling and visibility are OK
Clouds: unknown
Weather: no significant weather observed at this time

METAR text: RJFS 171600Z 36006KT CAVOK 01/M02 Q1025
Conditions at: RJFS (SAGA AIRPORT , JP) observed 1600 UTC 17 February 2019
Temperature: 1.0°C (34°F)
Dewpoint: -2.0°C (28°F) [RH = 80%]
Pressure (altimeter): 30.27 inches Hg (1025.0 mb)
Winds: from the N (360 degrees) at 7 MPH (6 knots; 3.1 m/s)
Visibility: 6 or more miles (10+ km)
Ceiling: ceiling and visibility are OK
Clouds: unknown
Weather: no significant weather observed at this time

METAR text: RJFS 171200Z 30005KT CAVOK 04/00 Q1023
Conditions at: RJFS (SAGA AIRPORT , JP) observed 1200 UTC 17 February 2019
Temperature: 4.0°C (39°F)
Dewpoint: 0.0°C (32°F) [RH = 75%]
Pressure (altimeter): 30.21 inches Hg (1023.0 mb)
Winds: from the WNW (300 degrees) at 6 MPH (5 knots; 2.6 m/s)
Visibility: 6 or more miles (10+ km)
Ceiling: ceiling and visibility are OK
Clouds: unknown
Weather: no significant weather observed at this time

METAR text: RJFS 171100Z 30007KT 9999 FEW035 BKN/// 06/00 Q1023
Conditions at: RJFS (SAGA AIRPORT , JP) observed 1100 UTC 17 February 2019
Temperature: 6.0°C (43°F)
Dewpoint: 0.0°C (32°F) [RH = 65%]
Pressure (altimeter): 30.21 inches Hg (1023.0 mb)
Winds: from the WNW (300 degrees) at 8 MPH (7 knots; 3.6 m/s)
Visibility: 6 or more miles (10+ km)
Ceiling: at least 12,000 feet AGL
Clouds: few clouds at 3500 feet AGL
Weather: no significant weather observed at this time

METAR text: RJFS 171000Z 31007KT 9999 FEW035 BKN/// 07/M01 Q1022
Conditions at: RJFS (SAGA AIRPORT , JP) observed 1000 UTC 17 February 2019
Temperature: 7.0°C (45°F)
Dewpoint: -1.0°C (30°F) [RH = 57%]
Pressure (altimeter): 30.18 inches Hg (1022.0 mb)
Winds: from the NW (310 degrees) at 8 MPH (7 knots; 3.6 m/s)
Visibility: 6 or more miles (10+ km)
Ceiling: at least 12,000 feet AGL
Clouds: few clouds at 3500 feet AGL
Weather: no significant weather observed at this time

METAR text: RJFS 170900Z 29010KT 9999 FEW035 08/M01 Q1022
Conditions at: RJFS (SAGA AIRPORT , JP) observed 0900 UTC 17 February 2019
Temperature: 8.0°C (46°F)
Dewpoint: -1.0°C (30°F) [RH = 53%]
Pressure (altimeter): 30.18 inches Hg (1022.0 mb)
Winds: from the WNW (290 degrees) at 12 MPH (10 knots; 5.1 m/s)
Visibility: 6 or more miles (10+ km)
Ceiling: at least 12,000 feet AGL
Clouds: few clouds at 3500 feet AGL
Weather: no significant weather observed at this time

METAR text: RJFS 170800Z 28011KT 9999 FEW035 10/M03 Q1021
Conditions at: RJFS (SAGA AIRPORT , JP) observed 0800 UTC 17 February 2019
Temperature: 10.0°C (50°F)
Dewpoint: -3.0°C (27°F) [RH = 40%]
Pressure (altimeter): 30.15 inches Hg (1021.0 mb)
Winds: from the W (280 degrees) at 13 MPH (11 knots; 5.7 m/s)
Visibility: 6 or more miles (10+ km)
Ceiling: at least 12,000 feet AGL
Clouds: few clouds at 3500 feet AGL
Weather: no significant weather observed at this time

METAR text: RJFS 170700Z 29008KT 9999 FEW035 11/M03 Q1021
Conditions at: RJFS (SAGA AIRPORT , JP) observed 0700 UTC 17 February 2019
Temperature: 11.0°C (52°F)
Dewpoint: -3.0°C (27°F) [RH = 37%]
Pressure (altimeter): 30.15 inches Hg (1021.0 mb)
Winds: from the WNW (290 degrees) at 9 MPH (8 knots; 4.1 m/s)
Visibility: 6 or more miles (10+ km)
Ceiling: at least 12,000 feet AGL
Clouds: few clouds at 3500 feet AGL
Weather: no significant weather observed at this time

METAR text: RJFS 170600Z 29010KT 9999 FEW035 11/M01 Q1021
Conditions at: RJFS (SAGA AIRPORT , JP) observed 0600 UTC 17 February 2019
Temperature: 11.0°C (52°F)
Dewpoint: -1.0°C (30°F) [RH = 43%]
Pressure (altimeter): 30.15 inches Hg (1021.0 mb)
Winds: from the WNW (290 degrees) at 12 MPH (10 knots; 5.1 m/s)
Visibility: 6 or more miles (10+ km)
Ceiling: at least 12,000 feet AGL
Clouds: few clouds at 3500 feet AGL
Weather: no significant weather observed at this time

METAR text: RJFS 170523Z 28010KT 9999 FEW035 10/M01 Q1021 RMK 1CU035 A3015
Conditions at: RJFS (SAGA AIRPORT , JP) observed 0523 UTC 17 February 2019
Temperature: 10.0°C (50°F)
Dewpoint: -1.0°C (30°F) [RH = 46%]
Pressure (altimeter): 30.15 inches Hg (1021.0 mb)
Winds: from the W (280 degrees) at 12 MPH (10 knots; 5.1 m/s)
Visibility: 6 or more miles (10+ km)
Ceiling: at least 12,000 feet AGL
Clouds: few clouds at 3500 feet AGL
Weather: no significant weather observed at this time

METAR text: RJFS 170500Z 16005KT 120V230 9999 FEW035 10/M01 Q1021
Conditions at: RJFS (SAGA AIRPORT , JP) observed 0500 UTC 17 February 2019
Temperature: 10.0°C (50°F)
Dewpoint: -1.0°C (30°F) [RH = 46%]
Pressure (altimeter): 30.15 inches Hg (1021.0 mb)
Winds: from the SSE (160 degrees) at 6 MPH (5 knots; 2.6 m/s)
Visibility: 6 or more miles (10+ km)
Ceiling: at least 12,000 feet AGL
Clouds: few clouds at 3500 feet AGL
Weather: no significant weather observed at this time

Forecast for: RJFS (SAGA AIRPORT , JP)
Text: TAF RJFS 181107Z 1812/1918 32003KT 8000 -SHRA FEW015 SCT020 BKN040
Forecast period: 1200 to 1400 UTC 18 February 2019
Forecast type: FROM: standard forecast or significant change
Winds: from the NW (320 degrees) at 3 MPH (3 knots; 1.5 m/s)
Visibility: 5 miles (8 km)
Ceiling: 4000 feet AGL
Clouds: few clouds at 1500 feet AGL
scattered clouds at 2000 feet AGL
broken clouds at 4000 feet AGL
Weather: -SHRA  (light rain showers)
Text: BECMG 1814/1816 03005KT
Forecast period: 1400 UTC 18 February 2019 to 0300 UTC 19 February 2019
Forecast type: BECOMING: Conditions expected to become as follows by 1600 UTC 18 February 2019
Winds: from the NNE (30 degrees) at 6 MPH (5 knots; 2.6 m/s)
Visibility: 5 miles (8 km)
Ceiling: 4000 feet AGL
Clouds: few clouds at 1500 feet AGL
scattered clouds at 2000 feet AGL
broken clouds at 4000 feet AGL
Weather: -SHRA  (light rain showers)
Text: TEMPO 1818/1820 4000 -SHRA BR
Forecast period: 1800 to 2000 UTC 18 February 2019
Forecast type: TEMPORARY: The following changes expected for less than half the time period
Visibility: 2.49 miles (4.01 km)
Ceiling: unknown
Clouds: missing
Weather: -SHRA BR  (light rain showers, mist)
Text: TEMPO 1820/1903 3000 SHRA BR FEW005 BKN008 BKN015
Forecast period: 2000 UTC 18 February 2019 to 0300 UTC 19 February 2019
Forecast type: TEMPORARY: The following changes expected for less than half the time period
Visibility: 1.86 miles (2.99 km)
Ceiling: 800 feet AGL
Clouds: few clouds at 500 feet AGL
broken clouds at 800 feet AGL
broken clouds at 1500 feet AGL
Weather: SHRA BR  (rain showers, mist)
Text: BECMG 1903/1906 27005KT
Forecast period: 0300 to 1800 UTC 19 February 2019
Forecast type: BECOMING: Conditions expected to become as follows by 0600 UTC 19 February 2019
Winds: from the W (270 degrees) at 6 MPH (5 knots; 2.6 m/s)
Visibility: 5 miles (8 km)
Ceiling: 4000 feet AGL
Clouds: few clouds at 1500 feet AGL
scattered clouds at 2000 feet AGL
broken clouds at 4000 feet AGL
Weather: -SHRA  (light rain showers)
Text: TEMPO 1903/1906 4000 -SHRA BR
Forecast period: 0300 to 0600 UTC 19 February 2019
Forecast type: TEMPORARY: The following changes expected for less than half the time period
Visibility: 2.49 miles (4.01 km)
Ceiling: unknown
Clouds: missing
Weather: -SHRA BR  (light rain showers, mist)